Time;durP1;ratioP1;P1;durP2;ratioP2;P2;SDS_P1;SDS_P2;PMS_P1;PMS_P2;Temp;Humidity;BMP_temperature;BMP_pressure;BME280_temperature;BME280_humidity;BME280_pressure;Samples;Min_cycle;Max_cycle;Signal;HPM_P1;HPM_P2
2022/02/01 00:02:05;;;;;;;3.90;1.50;;;22.00;32.70;;;;;;5034019;28;20025;-55
2022/02/01 00:09:52;;;;;;;2.05;0.93;;;22.00;32.70;;;;;;5040209;28;20057;-54
2022/02/01 00:17:28;;;;;;;2.35;1.10;;;21.90;32.60;;;;;;5049293;28;20037;-55
2022/02/01 00:34:04;;;;;;;2.08;0.70;;;21.90;32.70;;;;;;4994890;28;20036;-50
2022/02/01 00:36:38;;;;;;;2.33;0.88;;;21.80;33.20;;;;;;5035788;28;20069;-53
2022/02/01 00:39:08;;;;;;;1.73;0.80;;;21.90;32.60;;;;;;5035906;28;20040;-53
2022/02/01 00:41:40;;;;;;;2.25;0.82;;;21.80;32.60;;;;;;5050090;28;20428;-51
2022/02/01 00:44:05;;;;;;;2.63;0.98;;;21.80;32.60;;;;;;5041043;28;20444;-53
2022/02/01 00:46:31;;;;;;;3.28;1.10;;;21.80;32.60;;;;;;5043113;28;20033;-56
2022/02/01 00:48:57;;;;;;;2.55;0.90;;;21.80;32.60;;;;;;5043617;28;20025;-52
2022/02/01 00:51:23;;;;;;;1.73;0.80;;;21.80;32.50;;;;;;5038788;28;20114;-56
2022/02/01 00:53:49;;;;;;;2.15;0.75;;;21.80;32.50;;;;;;5049392;28;20409;-51
2022/02/01 00:56:15;;;;;;;1.70;0.75;;;21.80;32.50;;;;;;5046230;28;20356;-55
2022/02/01 00:58:41;;;;;;;2.30;0.88;;;21.80;32.50;;;;;;5051325;28;20453;-53
2022/02/01 01:01:07;;;;;;;2.55;0.95;;;21.80;32.40;;;;;;5038643;28;20028;-57
2022/02/01 01:03:33;;;;;;;2.80;1.02;;;21.80;32.40;;;;;;5044405;28;20021;-56
2022/02/01 01:05:59;;;;;;;2.53;0.77;;;21.80;32.40;;;;;;5052748;28;20020;-57
2022/02/01 01:08:26;;;;;;;1.98;0.68;;;21.80;32.40;;;;;;5039376;28;20449;-50
2022/02/01 01:10:52;;;;;;;3.13;1.05;;;21.80;32.30;;;;;;5040611;28;20321;-51
2022/02/01 01:45:57;;;;;;;2.97;1.13;;;21.70;32.10;;;;;;5049939;28;20029;-52
2022/02/01 01:53:53;;;;;;;1.75;0.70;;;21.70;32.10;;;;;;5055584;28;20044;-49
2022/02/01 01:56:19;;;;;;;2.20;0.80;;;21.70;32.10;;;;;;5056831;28;20419;-51
2022/02/01 01:58:44;;;;;;;2.45;0.88;;;21.60;32.00;;;;;;5055034;28;20044;-55
2022/02/01 02:01:13;;;;;;;2.30;0.90;;;21.60;32.00;;;;;;5047362;28;20025;-51
2022/02/01 02:03:41;;;;;;;2.33;0.98;;;21.70;32.00;;;;;;5052644;28;20441;-53
2022/02/01 02:06:07;;;;;;;2.50;1.00;;;21.70;32.00;;;;;;5041273;28;20035;-53
2022/02/01 02:08:33;;;;;;;1.77;0.88;;;21.70;32.00;;;;;;5041399;28;20024;-55
2022/02/01 02:11:10;;;;;;;1.35;0.43;;;21.60;31.90;;;;;;5054454;28;20037;-51
2022/02/01 02:16:23;;;;;;;1.58;0.57;;;21.60;31.90;;;;;;5039136;28;20029;-56
2022/02/01 02:18:49;;;;;;;2.97;0.80;;;21.60;32.60;;;;;;5043118;28;20033;-53
2022/02/01 02:21:18;;;;;;;3.47;0.82;;;21.60;31.90;;;;;;5051792;28;20514;-51
2022/02/01 02:23:45;;;;;;;2.08;0.90;;;21.60;31.90;;;;;;5047971;28;20364;-54
2022/02/01 02:26:17;;;;;;;2.67;0.80;;;21.60;32.00;;;;;;5039967;28;20083;-56
2022/02/01 02:28:46;;;;;;;1.15;0.70;;;21.60;31.90;;;;;;5044532;28;20091;-51
2022/02/01 02:31:12;;;;;;;2.10;0.73;;;21.60;32.00;;;;;;5057637;28;20043;-54
2022/02/01 02:33:39;;;;;;;1.67;0.60;;;21.60;32.00;;;;;;5052395;28;20068;-57
2022/02/01 02:36:13;;;;;;;1.40;0.68;;;21.60;32.00;;;;;;5049586;28;20049;-55
2022/02/01 02:38:50;;;;;;;2.00;0.80;;;21.60;32.00;;;;;;5056137;28;20506;-54
2022/02/01 02:46:28;;;;;;;1.20;0.50;;;21.50;32.00;;;;;;5038000;28;20035;-50
2022/02/01 02:48:54;;;;;;;1.65;0.70;;;21.50;32.00;;;;;;5051260;28;20072;-56
2022/02/01 02:51:21;;;;;;;1.67;0.55;;;21.50;32.00;;;;;;5048610;28;20035;-55
2022/02/01 02:53:47;;;;;;;2.33;0.85;;;21.50;31.90;;;;;;5047243;28;20112;-54
2022/02/01 02:56:13;;;;;;;2.20;0.80;;;21.50;31.90;;;;;;5026366;28;20041;-55
2022/02/01 02:58:39;;;;;;;2.22;0.73;;;21.50;31.90;;;;;;5018818;28;20029;-55
2022/02/01 03:01:05;;;;;;;2.17;0.95;;;21.50;31.90;;;;;;5021874;28;20026;-59
2022/02/01 03:03:31;;;;;;;2.90;0.70;;;21.50;31.90;;;;;;5019624;28;20500;-50
2022/02/01 03:05:57;;;;;;;2.95;1.00;;;21.50;31.80;;;;;;5022499;28;20034;-55
2022/02/01 03:08:24;;;;;;;2.10;0.68;;;21.50;31.80;;;;;;5017841;28;20026;-55
2022/02/01 03:10:50;;;;;;;2.75;1.10;;;21.50;31.80;;;;;;5033079;28;20033;-52
2022/02/01 03:13:22;;;;;;;1.85;0.50;;;21.50;31.80;;;;;;5036366;28;20025;-55
2022/02/01 03:21:04;;;;;;;1.58;0.50;;;21.50;31.80;;;;;;5023493;28;20045;-54
2022/02/01 03:23:30;;;;;;;2.22;0.60;;;21.40;31.80;;;;;;5018854;28;20021;-54
2022/02/01 03:25:55;;;;;;;1.25;0.50;;;21.50;31.80;;;;;;5026805;28;20021;-54
2022/02/01 03:28:21;;;;;;;2.63;0.70;;;21.40;31.70;;;;;;5018517;28;20030;-52
2022/02/01 03:30:47;;;;;;;1.10;0.45;;;21.50;31.80;;;;;;5032300;28;20033;-49
2022/02/01 03:33:13;;;;;;;1.92;0.80;;;21.50;31.80;;;;;;5017439;28;20038;-53
2022/02/01 03:35:38;;;;;;;1.58;0.50;;;21.50;31.80;;;;;;5034918;28;20036;-51
2022/02/01 03:38:04;;;;;;;1.17;0.50;;;21.40;31.70;;;;;;5018097;28;20030;-56
2022/02/01 03:40:30;;;;;;;1.17;0.47;;;21.40;31.70;;;;;;5020199;28;20029;-50
2022/02/01 03:42:56;;;;;;;1.35;0.57;;;21.40;31.70;;;;;;5034431;28;20022;-49
2022/02/01 03:45:22;;;;;;;2.75;0.60;;;21.40;31.70;;;;;;5026196;28;20033;-56
2022/02/01 03:47:48;;;;;;;1.58;0.70;;;21.40;31.70;;;;;;5034045;28;20401;-49
2022/02/01 03:50:13;;;;;;;1.98;0.77;;;21.40;31.70;;;;;;5027376;28;20030;-54
2022/02/01 03:52:39;;;;;;;1.73;0.60;;;21.40;31.70;;;;;;5016554;28;20029;-59
2022/02/01 03:55:06;;;;;;;1.98;0.55;;;21.40;31.70;;;;;;5033998;28;20489;-51
2022/02/01 03:57:31;;;;;;;1.73;0.60;;;21.40;31.70;;;;;;5056579;28;20029;-56
2022/02/01 03:59:57;;;;;;;1.90;0.70;;;21.40;31.70;;;;;;5047156;28;20467;-56
2022/02/01 04:02:23;;;;;;;2.05;0.77;;;21.40;31.70;;;;;;5047255;28;20314;-54
2022/02/01 04:04:53;;;;;;;1.33;0.60;;;21.40;31.70;;;;;;5040629;28;20021;-55
2022/02/01 04:07:19;;;;;;;1.52;0.43;;;21.40;31.70;;;;;;5034507;28;20558;-56
2022/02/01 04:09:46;;;;;;;1.77;0.45;;;21.40;31.70;;;;;;5036817;28;20021;-55
2022/02/01 04:12:11;;;;;;;2.40;0.70;;;21.40;31.70;;;;;;5039578;28;20033;-51
2022/02/01 04:14:38;;;;;;;1.55;0.60;;;21.40;32.30;;;;;;5036313;28;20088;-57
2022/02/01 04:17:06;;;;;;;1.40;0.50;;;21.40;31.70;;;;;;5036969;28;20036;-57
2022/02/01 04:19:33;;;;;;;1.90;0.80;;;21.40;31.70;;;;;;5043928;28;20041;-50
2022/02/01 04:22:03;;;;;;;1.33;0.60;;;21.40;31.70;;;;;;5052537;28;20163;-55
2022/02/01 04:24:35;;;;;;;1.92;0.60;;;21.40;31.70;;;;;;5047999;28;20377;-56
2022/02/01 04:27:01;;;;;;;1.70;0.75;;;21.40;31.70;;;;;;5049946;28;20037;-57
2022/02/01 04:29:27;;;;;;;0.98;0.47;;;21.40;31.70;;;;;;5042061;28;20035;-55
2022/02/01 04:31:53;;;;;;;1.73;0.52;;;21.40;31.70;;;;;;5042089;28;20025;-56
2022/02/01 04:34:19;;;;;;;1.00;0.40;;;21.30;31.70;;;;;;5055672;28;20039;-55
2022/02/01 04:36:45;;;;;;;2.28;0.60;;;21.40;31.70;;;;;;5053622;28;20021;-54
2022/02/01 04:39:11;;;;;;;1.73;0.73;;;21.30;31.60;;;;;;5055351;28;20441;-53
2022/02/01 04:41:37;;;;;;;1.45;0.60;;;21.30;31.60;;;;;;5053565;28;20108;-51
2022/02/01 04:44:04;;;;;;;1.67;0.70;;;21.40;31.70;;;;;;5017730;28;20120;-54
2022/02/01 04:46:30;;;;;;;1.88;0.68;;;21.30;31.60;;;;;;5052290;28;20028;-50
2022/02/01 04:49:02;;;;;;;1.67;0.77;;;21.30;31.60;;;;;;5050743;28;20037;-52
2022/02/01 04:51:29;;;;;;;1.77;0.55;;;21.30;31.60;;;;;;5047460;28;20043;-52
2022/02/01 04:53:56;;;;;;;4.85;0.80;;;21.30;31.70;;;;;;5055300;28;20074;-56
2022/02/01 04:56:22;;;;;;;2.15;0.60;;;21.30;31.70;;;;;;5043846;28;20395;-57
2022/02/01 04:58:48;;;;;;;2.55;1.00;;;21.30;31.60;;;;;;5055603;28;20032;-50
2022/02/01 05:01:14;;;;;;;3.00;0.80;;;21.30;31.60;;;;;;5045258;28;20077;-51
2022/02/01 05:03:42;;;;;;;1.75;0.65;;;21.30;31.60;;;;;;5048505;28;20372;-52
2022/02/01 05:06:10;;;;;;;2.05;0.77;;;21.30;31.60;;;;;;5066205;28;20025;-54
2022/02/01 05:08:36;;;;;;;1.10;0.50;;;21.30;31.60;;;;;;5039584;28;20056;-51
2022/02/01 05:11:02;;;;;;;1.65;0.73;;;21.30;31.60;;;;;;5039714;28;20025;-52
2022/02/01 05:16:05;;;;;;;1.80;0.55;;;21.20;31.60;;;;;;5040464;28;20389;-53
2022/02/01 05:18:41;;;;;;;2.05;0.80;;;21.20;31.60;;;;;;5054458;28;20032;-50
2022/02/01 05:21:13;;;;;;;2.10;0.77;;;21.20;31.60;;;;;;5044876;28;20049;-57
2022/02/01 05:23:39;;;;;;;1.52;0.60;;;21.20;31.60;;;;;;5054593;28;20043;-51
2022/02/01 05:26:05;;;;;;;1.52;0.70;;;21.20;31.60;;;;;;5040565;28;20024;-52
2022/02/01 05:28:31;;;;;;;2.08;0.70;;;21.20;31.60;;;;;;5045179;28;20109;-57
2022/02/01 05:31:02;;;;;;;1.35;0.55;;;21.20;31.60;;;;;;5036688;28;20057;-51
2022/02/01 05:33:29;;;;;;;2.53;0.70;;;21.20;31.60;;;;;;5045447;28;20414;-54
2022/02/01 05:35:55;;;;;;;1.92;0.65;;;21.20;31.60;;;;;;5034960;28;20025;-55
2022/02/01 05:38:21;;;;;;;5.45;0.90;;;21.20;31.70;;;;;;5054627;28;20132;-59
2022/02/01 05:40:47;;;;;;;0.82;0.40;;;21.20;31.70;;;;;;5048215;28;20425;-55
2022/02/01 05:43:19;;;;;;;0.85;0.43;;;21.20;31.70;;;;;;5050189;28;20061;-57
2022/02/01 05:45:45;;;;;;;1.17;0.60;;;21.20;31.70;;;;;;5048485;28;20021;-55
2022/02/01 05:48:12;;;;;;;1.30;0.70;;;21.20;31.70;;;;;;5037301;28;20017;-56
2022/02/01 05:50:40;;;;;;;1.25;0.52;;;21.20;31.80;;;;;;5043618;28;20029;-56
2022/02/01 05:53:06;;;;;;;2.00;0.68;;;21.20;31.80;;;;;;5054500;28;20033;-55
2022/02/01 05:55:34;;;;;;;1.90;0.70;;;21.20;31.80;;;;;;5050910;28;20045;-50
2022/02/01 05:58:00;;;;;;;1.45;0.70;;;21.20;31.80;;;;;;5054217;28;20036;-50
2022/02/01 06:00:27;;;;;;;1.92;0.50;;;21.10;31.70;;;;;;5033017;28;20037;-54
2022/02/01 06:02:53;;;;;;;2.53;0.82;;;21.10;31.80;;;;;;5053459;28;20083;-53
2022/02/01 06:05:19;;;;;;;1.70;0.60;;;21.10;31.80;;;;;;5048619;28;20033;-54
2022/02/01 06:07:45;;;;;;;1.60;0.73;;;21.10;31.80;;;;;;5034668;28;20384;-53
2022/02/01 06:10:12;;;;;;;0.68;0.45;;;21.10;31.80;;;;;;5036964;28;20102;-55
2022/02/01 06:12:48;;;;;;;1.80;0.60;;;21.10;31.80;;;;;;5044663;28;20335;-51
2022/02/01 06:15:16;;;;;;;1.00;0.43;;;21.10;31.80;;;;;;5038720;28;20033;-56
2022/02/01 06:17:42;;;;;;;1.42;0.65;;;21.10;31.80;;;;;;5052698;28;20053;-53
2022/02/01 06:20:11;;;;;;;1.05;0.50;;;21.10;31.80;;;;;;5049745;28;20040;-55
2022/02/01 06:22:37;;;;;;;1.92;0.77;;;21.10;31.90;;;;;;5034406;28;20052;-57
2022/02/01 06:25:04;;;;;;;2.60;0.90;;;21.10;31.90;;;;;;5044084;28;20075;-54
2022/02/01 06:27:29;;;;;;;1.85;0.65;;;21.10;31.90;;;;;;5025224;28;20025;-53
2022/02/01 06:29:55;;;;;;;1.25;0.50;;;21.10;31.90;;;;;;5039267;28;20021;-53
2022/02/01 06:32:21;;;;;;;1.20;0.60;;;21.10;32.00;;;;;;5046586;28;20112;-54
2022/02/01 06:34:48;;;;;;;1.67;0.57;;;21.10;32.00;;;;;;5050640;28;20052;-58
2022/02/01 06:37:14;;;;;;;1.35;0.65;;;21.10;32.00;;;;;;5054497;28;20379;-53
2022/02/01 06:39:43;;;;;;;2.05;0.90;;;21.00;32.00;;;;;;5038645;28;20037;-55
2022/02/01 06:42:09;;;;;;;2.05;0.47;;;21.10;32.00;;;;;;5047249;28;20105;-56
2022/02/01 06:44:35;;;;;;;1.50;0.63;;;21.00;32.00;;;;;;5020132;28;20436;-53
2022/02/01 06:47:01;;;;;;;2.03;0.60;;;21.10;32.10;;;;;;5037554;28;20061;-57
2022/02/01 06:49:27;;;;;;;1.42;0.70;;;21.00;32.10;;;;;;5048802;28;20068;-54
2022/02/01 06:51:52;;;;;;;1.55;0.60;;;21.00;32.10;;;;;;5042970;28;20017;-54
2022/02/01 06:54:18;;;;;;;1.52;0.70;;;21.00;32.10;;;;;;5050741;28;20032;-51
2022/02/01 06:56:44;;;;;;;3.53;0.98;;;21.00;32.10;;;;;;5036812;28;20069;-50
2022/02/01 06:59:10;;;;;;;1.52;0.50;;;21.10;32.20;;;;;;5049646;28;20432;-52
2022/02/01 07:01:36;;;;;;;1.00;0.50;;;21.00;32.10;;;;;;5044521;28;20112;-49
2022/02/01 07:04:02;;;;;;;0.95;0.40;;;21.00;32.10;;;;;;5046864;28;20029;-50
2022/02/01 07:06:33;;;;;;;4.38;0.98;;;21.00;32.10;;;;;;5049648;28;20078;-52
2022/02/01 07:09:01;;;;;;;2.30;0.60;;;21.00;32.10;;;;;;5056451;28;20029;-54
2022/02/01 07:11:27;;;;;;;3.47;1.00;;;21.00;32.10;;;;;;5050656;28;20053;-54
2022/02/01 07:13:53;;;;;;;1.40;0.60;;;21.00;32.20;;;;;;5049754;28;20021;-52
2022/02/01 07:16:20;;;;;;;1.88;0.82;;;21.00;32.20;;;;;;5047950;28;20441;-49
2022/02/01 07:18:46;;;;;;;1.48;0.65;;;21.00;32.20;;;;;;5042275;28;20037;-55
2022/02/01 07:21:12;;;;;;;1.85;0.70;;;21.00;32.20;;;;;;5046375;28;20037;-57
2022/02/01 07:23:39;;;;;;;2.00;0.68;;;21.00;32.30;;;;;;5045876;28;20025;-58
2022/02/01 07:26:07;;;;;;;0.95;0.40;;;21.00;32.30;;;;;;5045115;28;20035;-59
2022/02/01 07:28:33;;;;;;;1.10;0.50;;;21.00;32.40;;;;;;5054684;28;20028;-53
2022/02/01 07:30:59;;;;;;;1.88;0.70;;;21.00;32.40;;;;;;5054662;28;20112;-53
2022/02/01 07:33:26;;;;;;;2.30;0.80;;;21.00;32.40;;;;;;5052162;28;20025;-52
2022/02/01 07:35:53;;;;;;;3.15;1.10;;;21.00;32.50;;;;;;5054879;28;20021;-53
2022/02/01 07:38:22;;;;;;;1.95;0.70;;;21.00;32.50;;;;;;5050042;28;20088;-56
2022/02/01 07:40:49;;;;;;;2.22;0.70;;;21.00;32.70;;;;;;5043298;28;20104;-55
2022/02/01 07:43:16;;;;;;;3.58;0.75;;;21.00;33.00;;;;;;5037218;28;20030;-52
2022/02/01 07:45:44;;;;;;;3.42;1.38;;;21.00;33.20;;;;;;5043952;28;20493;-48
2022/02/01 07:48:11;;;;;;;3.05;1.10;;;21.00;33.40;;;;;;5046451;28;20033;-50
2022/02/01 07:50:39;;;;;;;2.58;1.02;;;21.00;33.50;;;;;;5053796;28;20366;-56
2022/02/01 07:53:07;;;;;;;3.58;1.08;;;21.10;33.50;;;;;;5055193;28;20025;-51
2022/02/01 07:55:34;;;;;;;2.35;1.00;;;21.20;33.60;;;;;;5054769;28;20044;-53
2022/02/01 07:58:00;;;;;;;2.78;1.00;;;21.20;33.50;;;;;;5052475;28;20033;-50
2022/02/01 08:00:26;;;;;;;4.95;1.05;;;21.30;33.50;;;;;;5055293;28;20037;-49
2022/02/01 08:02:55;;;;;;;2.08;0.70;;;21.40;33.50;;;;;;5054285;28;20021;-53
2022/02/01 08:05:21;;;;;;;2.17;1.02;;;21.50;33.40;;;;;;5036016;28;20051;-52
2022/02/01 08:07:47;;;;;;;2.83;0.93;;;21.60;33.40;;;;;;5050161;28;20432;-54
2022/02/01 08:10:17;;;;;;;2.85;1.10;;;21.70;33.40;;;;;;5054275;28;20116;-52
2022/02/01 08:23:20;;;;;;;1.67;0.70;;;22.10;33.00;;;;;;5039715;28;20029;-53
2022/02/01 08:25:46;;;;;;;3.50;1.00;;;22.20;33.00;;;;;;5036256;28;20101;-51
2022/02/01 08:28:12;;;;;;;3.35;1.48;;;22.30;32.90;;;;;;5035823;28;20035;-55
2022/02/01 08:30:38;;;;;;;2.22;0.90;;;22.40;32.90;;;;;;5038098;28;20018;-51
2022/02/01 08:33:04;;;;;;;1.65;0.80;;;22.50;32.90;;;;;;5035323;28;20092;-54
2022/02/01 08:35:30;;;;;;;2.90;1.00;;;22.50;32.80;;;;;;5038281;28;20036;-52
2022/02/01 08:37:56;;;;;;;3.03;0.90;;;22.60;32.70;;;;;;5045866;28;20041;-53
2022/02/01 08:40:23;;;;;;;1.55;0.95;;;22.70;32.70;;;;;;5054039;28;20043;-52
2022/02/01 08:42:50;;;;;;;2.30;1.08;;;22.80;32.70;;;;;;5052828;28;20028;-51
2022/02/01 08:45:22;;;;;;;2.20;0.90;;;22.80;32.60;;;;;;5053805;28;20589;-53
2022/02/01 08:47:52;;;;;;;2.55;1.17;;;22.90;32.50;;;;;;5050962;28;20098;-52
2022/02/01 08:50:24;;;;;;;2.40;0.88;;;23.00;32.50;;;;;;5054379;28;20064;-56
2022/02/01 08:52:51;;;;;;;1.83;0.77;;;23.00;32.40;;;;;;5052868;28;20051;-51
2022/02/01 08:55:39;;;;;;;1.98;1.00;;;23.10;32.30;;;;;;5053871;28;20440;-49
2022/02/01 08:58:07;;;;;;;3.75;1.02;;;23.20;32.20;;;;;;5040429;28;20095;-46
2022/02/01 09:00:34;;;;;;;2.33;0.90;;;23.30;32.20;;;;;;5035778;28;20021;-52
2022/02/01 09:03:03;;;;;;;2.15;0.70;;;23.30;32.10;;;;;;5043817;28;20425;-50
2022/02/01 09:05:30;;;;;;;1.25;0.73;;;23.30;32.00;;;;;;5054889;28;20086;-52
2022/02/01 09:08:03;;;;;;;2.00;0.73;;;23.40;31.90;;;;;;5041962;28;20029;-54
2022/02/01 09:10:30;;;;;;;1.77;0.73;;;23.50;31.90;;;;;;5044641;28;20063;-52
2022/02/01 09:12:57;;;;;;;1.70;0.85;;;23.60;31.90;;;;;;5055515;28;20099;-51
2022/02/01 09:15:24;;;;;;;2.65;1.30;;;23.60;31.90;;;;;;5054707;28;20194;-48
2022/02/01 09:17:51;;;;;;;1.77;0.80;;;23.60;31.80;;;;;;5052984;28;20025;-55
2022/02/01 09:20:17;;;;;;;3.47;1.10;;;23.70;31.80;;;;;;5054377;28;20040;-53
2022/02/01 09:22:43;;;;;;;2.10;0.90;;;23.70;31.70;;;;;;5053539;28;20017;-54
2022/02/01 09:25:10;;;;;;;1.10;0.80;;;23.80;31.70;;;;;;5038986;28;20338;-51
2022/02/01 09:27:36;;;;;;;1.00;0.60;;;23.80;31.60;;;;;;5034621;28;20407;-48
2022/02/01 09:30:03;;;;;;;2.42;0.68;;;23.90;31.70;;;;;;5043763;28;20025;-54
2022/02/01 09:32:29;;;;;;;1.27;0.60;;;23.90;31.70;;;;;;5053530;28;20108;-52
2022/02/01 09:34:55;;;;;;;1.00;0.70;;;23.90;31.50;;;;;;5053865;28;20108;-52
2022/02/01 09:37:21;;;;;;;0.93;0.60;;;24.00;31.50;;;;;;5053567;28;20068;-49
2022/02/01 09:39:47;;;;;;;0.55;0.52;;;24.00;31.50;;;;;;5051524;28;20438;-57
2022/02/01 09:42:13;;;;;;;1.20;0.50;;;24.00;31.50;;;;;;5054902;28;20025;-52
2022/02/01 09:44:39;;;;;;;0.93;0.52;;;24.00;31.40;;;;;;5053625;28;20483;-53
2022/02/01 09:47:04;;;;;;;1.23;0.40;;;24.00;31.40;;;;;;5054492;28;20025;-50
2022/02/01 09:49:30;;;;;;;0.60;0.40;;;24.00;31.40;;;;;;5042927;28;20025;-47
2022/02/01 09:51:58;;;;;;;1.10;0.60;;;24.00;31.40;;;;;;5054471;28;20031;-52
2022/02/01 09:54:26;;;;;;;0.98;0.60;;;24.00;31.40;;;;;;5053769;28;20032;-53
2022/02/01 09:56:53;;;;;;;0.75;0.50;;;24.00;31.40;;;;;;5055154;28;20032;-51
2022/02/01 09:59:29;;;;;;;1.42;0.50;;;24.10;31.50;;;;;;5044300;28;20041;-54
2022/02/01 10:01:56;;;;;;;0.77;0.40;;;24.00;31.40;;;;;;5046463;28;20028;-53
2022/02/01 10:04:29;;;;;;;0.90;0.50;;;24.10;31.40;;;;;;5041002;28;20335;-51
2022/02/01 10:07:10;;;;;;;1.15;0.50;;;24.10;31.40;;;;;;5050479;28;20086;-50
2022/02/01 10:09:58;;;;;;;0.88;0.40;;;24.10;31.40;;;;;;5038428;28;20041;-54
2022/02/01 10:12:29;;;;;;;0.82;0.45;;;24.10;31.30;;;;;;5050449;28;20021;-51
2022/02/01 10:15:05;;;;;;;0.75;0.40;;;24.10;31.40;;;;;;5058176;28;20025;-53
2022/02/01 10:17:48;;;;;;;1.20;0.57;;;24.10;31.40;;;;;;5045474;28;20111;-50
2022/02/01 10:20:15;;;;;;;0.93;0.40;;;24.00;31.40;;;;;;5038609;28;20095;-49
2022/02/01 10:22:43;;;;;;;1.42;0.60;;;24.00;31.50;;;;;;5043958;28;20033;-51
2022/02/01 10:25:29;;;;;;;1.85;0.45;;;23.90;31.50;;;;;;5038432;28;20044;-47
2022/02/01 10:28:03;;;;;;;0.90;0.50;;;23.90;31.50;;;;;;5053929;28;20424;-49
2022/02/01 10:30:41;;;;;;;0.60;0.43;;;23.80;31.50;;;;;;5058488;28;20107;-52
2022/02/01 10:33:21;;;;;;;0.40;0.40;;;23.80;31.60;;;;;;5056358;28;20416;-50
2022/02/01 10:35:57;;;;;;;0.70;0.30;;;23.80;31.60;;;;;;5058682;28;20400;-51
2022/02/01 10:38:30;;;;;;;0.77;0.45;;;23.90;31.60;;;;;;5038266;28;20029;-52
2022/02/01 10:40:56;;;;;;;0.22;0.20;;;23.90;31.60;;;;;;5037568;28;20356;-49
2022/02/01 10:43:31;;;;;;;0.50;0.30;;;23.90;31.50;;;;;;5038922;28;20029;-53
2022/02/01 10:46:25;;;;;;;0.43;0.30;;;24.00;31.50;;;;;;5037689;28;20029;-49
2022/02/01 10:48:53;;;;;;;0.65;0.32;;;24.00;31.50;;;;;;5035372;28;20041;-51
2022/02/01 10:51:21;;;;;;;0.38;0.30;;;24.00;31.50;;;;;;5048391;28;20294;-47
2022/02/01 10:53:47;;;;;;;0.50;0.30;;;24.00;31.50;;;;;;5058257;28;20036;-52
2022/02/01 10:56:16;;;;;;;0.25;0.25;;;24.00;31.50;;;;;;5040788;28;20045;-53
2022/02/01 10:58:44;;;;;;;0.50;0.50;;;24.00;31.50;;;;;;5053731;28;20033;-51
2022/02/01 11:01:10;;;;;;;0.60;0.40;;;24.00;31.40;;;;;;5054529;28;20041;-57
2022/02/01 11:03:42;;;;;;;0.52;0.30;;;24.00;31.50;;;;;;5048806;28;20344;-51
2022/02/01 11:06:10;;;;;;;0.70;0.20;;;24.00;31.50;;;;;;5052336;28;20052;-48
2022/02/01 11:08:39;;;;;;;0.25;0.20;;;24.00;31.50;;;;;;5039733;28;20104;-45
2022/02/01 11:11:05;;;;;;;0.57;0.30;;;24.00;31.50;;;;;;5043700;28;20333;-46
2022/02/01 11:13:39;;;;;;;0.43;0.40;;;24.00;31.50;;;;;;5057721;28;20036;-51
2022/02/01 11:16:07;;;;;;;0.50;0.25;;;24.00;31.60;;;;;;5019554;28;20060;-52
2022/02/01 11:18:34;;;;;;;0.75;0.20;;;24.00;31.70;;;;;;5044442;28;20041;-52
2022/02/01 11:21:03;;;;;;;0.30;0.30;;;24.00;31.70;;;;;;5055253;28;20086;-52
2022/02/01 11:23:46;;;;;;;0.73;0.40;;;24.00;31.70;;;;;;5031204;28;20354;-58
2022/02/01 11:26:49;;;;;;;0.32;0.20;;;24.10;31.70;;;;;;5046821;28;20032;-56
2022/02/01 11:32:34;;;;;;;0.80;0.20;;;24.00;31.90;;;;;;4980498;28;20030;-56
2022/02/01 11:35:05;;;;;;;1.05;0.50;;;24.00;32.10;;;;;;5027980;28;20138;-58
2022/02/01 11:37:31;;;;;;;0.32;0.30;;;24.00;32.30;;;;;;5037453;28;20018;-56
2022/02/01 11:39:58;;;;;;;1.77;0.20;;;24.00;32.50;;;;;;5036803;28;20094;-57
2022/02/01 11:42:32;;;;;;;1.40;0.43;;;24.00;32.60;;;;;;5041071;28;20051;-54
2022/02/01 11:45:03;;;;;;;0.75;0.43;;;24.00;32.70;;;;;;5042544;28;20024;-53
2022/02/01 11:47:37;;;;;;;0.57;0.22;;;24.10;32.90;;;;;;5053509;28;20029;-54
2022/02/01 11:50:09;;;;;;;0.43;0.20;;;24.10;32.90;;;;;;5047039;28;20533;-47
2022/02/01 11:52:51;;;;;;;1.90;0.45;;;24.10;32.90;;;;;;5036276;28;20033;-50
2022/02/01 11:55:19;;;;;;;0.40;0.22;;;24.10;32.90;;;;;;5037670;28;20357;-51
2022/02/01 11:57:49;;;;;;;2.05;0.25;;;24.10;33.00;;;;;;5038819;28;20094;-52
2022/02/01 12:00:18;;;;;;;1.48;0.25;;;24.20;33.10;;;;;;5036176;28;20044;-49
2022/02/01 12:02:49;;;;;;;0.35;0.30;;;24.20;33.10;;;;;;5043921;28;20171;-52
2022/02/01 12:05:28;;;;;;;0.93;0.20;;;24.20;33.10;;;;;;5038726;28;20021;-52
2022/02/01 12:08:11;;;;;;;2.33;0.45;;;24.20;33.20;;;;;;5039412;28;20424;-52
2022/02/01 12:10:42;;;;;;;0.50;0.13;;;24.20;33.20;;;;;;5041231;28;20056;-53
2022/02/01 12:13:10;;;;;;;0.77;0.32;;;24.30;33.40;;;;;;5036301;28;20423;-55
2022/02/01 12:15:39;;;;;;;0.30;0.28;;;24.30;33.40;;;;;;5039126;28;20425;-57
2022/02/01 12:18:08;;;;;;;1.48;0.40;;;24.30;33.40;;;;;;5037052;28;20021;-53
2022/02/01 12:20:36;;;;;;;1.30;0.30;;;24.30;33.60;;;;;;5037556;28;20044;-51
2022/02/01 12:23:17;;;;;;;0.43;0.30;;;24.30;33.60;;;;;;5037228;28;20119;-53
2022/02/01 12:25:42;;;;;;;0.80;0.43;;;24.30;33.60;;;;;;5041252;28;20047;-49
2022/02/01 12:28:17;;;;;;;5.40;0.65;;;24.30;33.80;;;;;;5046179;28;20025;-52
2022/02/01 12:30:43;;;;;;;1.58;0.50;;;24.30;33.80;;;;;;5036276;28;21611;-50
2022/02/01 12:33:26;;;;;;;1.98;0.40;;;24.30;33.80;;;;;;5038855;28;20033;-55
2022/02/01 12:35:55;;;;;;;1.45;0.50;;;24.30;33.80;;;;;;5034580;28;20041;-52
2022/02/01 12:38:25;;;;;;;6.38;0.50;;;24.30;33.90;;;;;;5039203;28;20029;-55
2022/02/01 12:41:11;;;;;;;0.55;0.40;;;24.30;33.90;;;;;;5035889;28;20044;-49
2022/02/01 12:43:55;;;;;;;0.63;0.40;;;24.30;33.90;;;;;;5056710;28;20027;-55
2022/02/01 12:46:39;;;;;;;1.58;0.60;;;24.30;34.00;;;;;;5051098;28;20037;-54
2022/02/01 12:49:05;;;;;;;2.50;0.52;;;24.30;34.10;;;;;;5039032;28;20033;-51
2022/02/01 12:51:46;;;;;;;4.75;0.60;;;24.30;34.20;;;;;;5037805;28;20095;-54
2022/02/01 12:54:26;;;;;;;2.17;0.70;;;24.30;34.30;;;;;;5030708;28;20384;-52
2022/02/01 12:57:03;;;;;;;5.05;0.80;;;24.30;34.30;;;;;;5033499;28;20049;-58
2022/02/01 13:00:10;;;;;;;1.15;0.57;;;24.30;34.30;;;;;;5035761;28;20436;-55
2022/02/01 13:02:35;;;;;;;;;;;24.30;34.40;;;;;;5039839;28;20411;-51
2022/02/01 13:05:10;;;;;;;1.17;0.50;;;24.30;34.40;;;;;;5034876;28;20008;-49
2022/02/01 13:15:53;;;;;;;1.95;0.70;;;24.20;34.50;;;;;;5040278;28;20016;-45
2022/02/01 13:21:23;;;;;;;1.63;0.60;;;24.20;34.60;;;;;;5016755;28;20055;-53
2022/02/01 13:23:52;;;;;;;1.83;0.75;;;24.20;34.60;;;;;;5038760;28;20036;-55
2022/02/01 13:26:22;;;;;;;2.00;0.60;;;24.20;34.70;;;;;;5022943;28;20040;-62
2022/02/01 13:29:03;;;;;;;4.95;0.52;;;24.20;34.70;;;;;;5018880;28;20045;-50
2022/02/01 13:31:34;;;;;;;3.25;0.50;;;24.20;34.50;;;;;;5040006;28;20455;-54
2022/02/01 13:34:04;;;;;;;1.88;0.50;;;24.20;34.40;;;;;;5040670;28;20062;-53
2022/02/01 13:36:46;;;;;;;1.95;0.60;;;24.20;34.50;;;;;;5040629;28;20351;-50
2022/02/01 13:39:22;;;;;;;0.95;0.40;;;24.20;34.50;;;;;;5037444;28;20041;-56
2022/02/01 13:41:59;;;;;;;1.10;0.50;;;24.20;34.50;;;;;;5038031;28;20329;-51
2022/02/01 13:44:27;;;;;;;3.17;0.40;;;24.20;34.60;;;;;;5034664;28;20079;-53
2022/02/01 13:47:05;;;;;;;0.85;0.40;;;24.20;34.70;;;;;;5040398;28;20049;-59
2022/02/01 13:49:32;;;;;;;1.20;0.50;;;24.20;34.80;;;;;;5041944;28;20048;-57
2022/02/01 13:51:59;;;;;;;1.05;0.43;;;24.20;34.90;;;;;;5042220;28;20603;-56
2022/02/01 13:54:35;;;;;;;1.95;0.77;;;24.20;34.90;;;;;;5033669;28;20114;-55
2022/02/01 13:57:10;;;;;;;2.03;0.52;;;24.20;35.00;;;;;;5037234;28;20491;-57
2022/02/01 13:59:37;;;;;;;;;;;24.20;35.10;;;;;;5037691;28;20111;-59
2022/02/01 14:02:05;;;;;;;2.47;0.60;;;24.10;35.10;;;;;;5041377;28;20102;-58
2022/02/01 14:04:45;;;;;;;1.05;0.50;;;24.10;35.20;;;;;;5042503;28;20049;-58
2022/02/01 14:07:18;;;;;;;8.65;1.02;;;24.10;35.30;;;;;;5039465;28;20025;-58
2022/02/01 14:10:04;;;;;;;2.80;0.60;;;24.20;35.40;;;;;;5041149;28;20533;-55
2022/02/01 14:28:46;;;;;;;3.50;1.10;;;24.10;35.70;;;;;;5002830;28;20029;-54
2022/02/01 14:36:31;;;;;;;1.38;0.57;;;24.10;35.80;;;;;;5041416;28;20228;-58
2022/02/01 14:44:27;;;;;;;1.92;0.60;;;24.20;35.70;;;;;;5044608;28;20425;-60
2022/02/01 14:46:53;;;;;;;2.22;0.75;;;24.30;35.70;;;;;;5027162;28;20331;-58
2022/02/01 14:49:23;;;;;;;1.60;0.60;;;24.30;35.60;;;;;;5052668;28;20440;-56
2022/02/01 14:51:57;;;;;;;1.10;0.55;;;24.30;35.60;;;;;;5043531;28;20013;-59
2022/02/01 14:54:31;;;;;;;1.58;0.70;;;24.40;35.50;;;;;;5047222;28;20337;-58
2022/02/01 15:03:42;;;;;;;1.77;0.63;;;24.40;35.50;;;;;;5045079;28;20471;-59
2022/02/01 15:05:31;;;;;;;1.15;0.60;;;24.50;35.40;;;;;;5045952;28;20056;-59
2022/02/01 15:11:23;;;;;;;1.77;0.63;;;24.50;35.30;;;;;;5044730;28;20025;-55
2022/02/01 15:13:35;;;;;;;2.35;0.70;;;24.60;35.30;;;;;;5044632;28;20025;-54
2022/02/01 15:16:01;;;;;;;1.40;0.60;;;24.60;35.20;;;;;;5044607;28;20026;-49
2022/02/01 15:18:27;;;;;;;2.65;0.60;;;24.60;35.90;;;;;;5041516;28;20044;-52